AUA147 LOWW-LSZH
Flight info
| Callsign | AUA147 |
|---|---|
| Flight time | 0h 58m |
| Altitude | 30000 |
| Route | SOVIL DCT SITNI DCT BAGSI DCT MATIG DCT TRAUN DCT KONIN/N0319F120 L856 NEGRA |
| Aircraft | A320/M-SDE3FGHIRWY/LB1 |
Departure
| Time | 2026-04-26 19:51 |
|---|---|
| Airport | Vienna International Airport (LOWW) |
Arrival
| Time | 2026-04-26 20:50 |
|---|---|
| Airport | Zürich Airport (LSZH) |
| Time | Latitude | Longitude | Altitude | Speed | Heading |
|---|---|---|---|---|---|
| 2026-04-26 19:30 | 48.11936 | 16.56661 | 609 ft | 0 kts | 207° |
| 2026-04-26 19:42 | 48.11941 | 16.56665 | 609 ft | 2 kts | 207° |
| 2026-04-26 19:42 | 48.11954 | 16.56678 | 609 ft | 2 kts | 237° |
| 2026-04-26 19:43 | 48.11960 | 16.56699 | 609 ft | 2 kts | 266° |
| 2026-04-26 19:43 | 48.11960 | 16.56713 | 609 ft | 2 kts | 264° |
| 2026-04-26 19:43 | 48.11968 | 16.56731 | 609 ft | 2 kts | 207° |
| 2026-04-26 19:43 | 48.11983 | 16.56733 | 609 ft | 2 kts | 158° |
| 2026-04-26 19:44 | 48.11992 | 16.56723 | 609 ft | 0 kts | 121° |
| 2026-04-26 19:44 | 48.11995 | 16.56714 | 609 ft | 1 kts | 115° |
| 2026-04-26 19:44 | 48.11995 | 16.56712 | 609 ft | 0 kts | 116° |
| 2026-04-26 19:46 | 48.11993 | 16.56719 | 609 ft | 2 kts | 116° |
| 2026-04-26 19:46 | 48.11975 | 16.56773 | 609 ft | 8 kts | 116° |
| 2026-04-26 19:47 | 48.11939 | 16.56882 | 609 ft | 14 kts | 116° |
| 2026-04-26 19:47 | 48.11906 | 16.56985 | 609 ft | 18 kts | 116° |
| 2026-04-26 19:47 | 48.11847 | 16.57238 | 609 ft | 16 kts | 113° |
| 2026-04-26 19:47 | 48.11782 | 16.57353 | 609 ft | 14 kts | 160° |
| 2026-04-26 19:48 | 48.11676 | 16.57400 | 609 ft | 16 kts | 165° |
| 2026-04-26 19:48 | 48.11560 | 16.57449 | 609 ft | 17 kts | 165° |
| 2026-04-26 19:48 | 48.11439 | 16.57421 | 609 ft | 18 kts | 207° |
| 2026-04-26 19:48 | 48.11325 | 16.57338 | 609 ft | 16 kts | 205° |
| 2026-04-26 19:49 | 48.11212 | 16.57286 | 609 ft | 17 kts | 160° |
| 2026-04-26 19:49 | 48.11167 | 16.57404 | 609 ft | 14 kts | 120° |
| 2026-04-26 19:49 | 48.11106 | 16.57527 | 609 ft | 14 kts | 170° |
| 2026-04-26 19:49 | 48.11061 | 16.57512 | 609 ft | 0 kts | 205° |
| 2026-04-26 19:50 | 48.11039 | 16.57497 | 609 ft | 6 kts | 204° |
| 2026-04-26 19:50 | 48.10980 | 16.57454 | 609 ft | 12 kts | 207° |
| 2026-04-26 19:50 | 48.10963 | 16.57380 | 609 ft | 7 kts | 293° |
| 2026-04-26 19:50 | 48.10970 | 16.57359 | 609 ft | 9 kts | 296° |
| 2026-04-26 19:51 | 48.11113 | 16.56923 | 609 ft | 81 kts | 296° |
| 2026-04-26 19:51 | 48.11454 | 16.55875 | 609 ft | 140 kts | 296° |
| 2026-04-26 19:51 | 48.11938 | 16.54384 | 832 ft | 170 kts | 298° |
| 2026-04-26 19:51 | 48.12356 | 16.52735 | 1452 ft | 174 kts | 275° |
| 2026-04-26 19:52 | 48.11986 | 16.51050 | 2099 ft | 179 kts | 227° |
| 2026-04-26 19:52 | 48.10964 | 16.50008 | 2618 ft | 186 kts | 208° |
| 2026-04-26 19:52 | 48.09779 | 16.49065 | 2945 ft | 201 kts | 209° |
| 2026-04-26 19:52 | 48.08528 | 16.47955 | 3273 ft | 218 kts | 212° |
| 2026-04-26 19:53 | 48.07267 | 16.46617 | 3765 ft | 226 kts | 220° |
| 2026-04-26 19:53 | 48.06024 | 16.45045 | 4105 ft | 244 kts | 226° |
| 2026-04-26 19:53 | 48.05115 | 16.42854 | 4453 ft | 258 kts | 260° |
| 2026-04-26 19:53 | 48.05054 | 16.40199 | 5069 ft | 262 kts | 276° |
| 2026-04-26 19:54 | 48.05190 | 16.37496 | 5943 ft | 261 kts | 276° |
| 2026-04-26 19:54 | 48.05296 | 16.34845 | 6841 ft | 258 kts | 274° |
| 2026-04-26 19:54 | 48.05362 | 16.32168 | 7689 ft | 258 kts | 273° |
| 2026-04-26 19:54 | 48.05397 | 16.29499 | 8474 ft | 260 kts | 273° |
| 2026-04-26 19:55 | 48.05413 | 16.26797 | 9248 ft | 263 kts | 273° |
| 2026-04-26 19:55 | 48.05417 | 16.24077 | 10007 ft | 265 kts | 273° |
| 2026-04-26 19:55 | 48.05415 | 16.21319 | 10750 ft | 269 kts | 272° |
| 2026-04-26 19:55 | 48.05409 | 16.18456 | 11160 ft | 285 kts | 272° |
| 2026-04-26 19:56 | 48.05397 | 16.15392 | 11523 ft | 301 kts | 272° |
| 2026-04-26 19:56 | 48.05381 | 16.12254 | 12070 ft | 309 kts | 272° |
| 2026-04-26 19:56 | 48.05357 | 16.08998 | 12758 ft | 313 kts | 272° |
| 2026-04-26 19:56 | 48.05332 | 16.05744 | 13420 ft | 317 kts | 272° |
| 2026-04-26 19:57 | 48.05308 | 16.02430 | 14071 ft | 321 kts | 272° |
| 2026-04-26 19:57 | 48.05283 | 15.99102 | 14695 ft | 325 kts | 272° |
| 2026-04-26 19:57 | 48.05257 | 15.95728 | 15333 ft | 328 kts | 272° |
| 2026-04-26 19:57 | 48.05228 | 15.92306 | 15921 ft | 331 kts | 272° |
| 2026-04-26 19:58 | 48.05198 | 15.88836 | 16504 ft | 335 kts | 272° |
| 2026-04-26 19:58 | 48.05167 | 15.85402 | 17058 ft | 338 kts | 272° |
| 2026-04-26 19:58 | 48.05135 | 15.81866 | 17617 ft | 341 kts | 271° |
| 2026-04-26 19:58 | 48.05100 | 15.78290 | 18168 ft | 344 kts | 271° |
| 2026-04-26 19:59 | 48.05065 | 15.74702 | 18690 ft | 347 kts | 271° |
| 2026-04-26 19:59 | 48.05030 | 15.71127 | 19230 ft | 349 kts | 271° |
| 2026-04-26 19:59 | 48.04992 | 15.67510 | 19770 ft | 351 kts | 271° |
| 2026-04-26 19:59 | 48.04952 | 15.63852 | 20295 ft | 353 kts | 270° |
| 2026-04-26 20:00 | 48.04911 | 15.60189 | 20828 ft | 354 kts | 270° |
| 2026-04-26 20:00 | 48.04868 | 15.56494 | 21342 ft | 356 kts | 270° |
| 2026-04-26 20:00 | 48.04824 | 15.52792 | 21852 ft | 357 kts | 270° |
| 2026-04-26 20:00 | 48.04779 | 15.49127 | 22324 ft | 359 kts | 270° |
| 2026-04-26 20:01 | 48.04732 | 15.45389 | 22802 ft | 361 kts | 270° |
| 2026-04-26 20:01 | 48.04682 | 15.41621 | 23279 ft | 362 kts | 270° |
| 2026-04-26 20:01 | 48.04641 | 15.37890 | 23732 ft | 364 kts | 271° |
| 2026-04-26 20:01 | 48.04684 | 15.34074 | 24164 ft | 366 kts | 271° |
| 2026-04-26 20:02 | 48.04744 | 15.30306 | 24543 ft | 369 kts | 271° |
| 2026-04-26 20:02 | 48.04805 | 15.26423 | 24947 ft | 372 kts | 271° |
| 2026-04-26 20:02 | 48.04866 | 15.22604 | 25340 ft | 374 kts | 271° |
| 2026-04-26 20:02 | 48.04906 | 15.20010 | 25616 ft | 375 kts | 271° |
| 2026-04-26 20:03 | 48.04986 | 15.14779 | 26161 ft | 378 kts | 271° |
| 2026-04-26 20:03 | 48.05043 | 15.10899 | 26536 ft | 380 kts | 271° |
| 2026-04-26 20:03 | 48.05101 | 15.06948 | 26926 ft | 381 kts | 271° |
| 2026-04-26 20:03 | 48.05157 | 15.02984 | 27297 ft | 383 kts | 271° |
| 2026-04-26 20:04 | 48.05212 | 14.98999 | 27648 ft | 385 kts | 271° |
| 2026-04-26 20:04 | 48.05265 | 14.94985 | 28012 ft | 387 kts | 271° |
| 2026-04-26 20:04 | 48.05317 | 14.90983 | 28456 ft | 386 kts | 271° |
| 2026-04-26 20:04 | 48.05368 | 14.86952 | 28907 ft | 385 kts | 271° |
| 2026-04-26 20:05 | 48.05417 | 14.82930 | 29276 ft | 386 kts | 271° |
| 2026-04-26 20:05 | 48.05455 | 14.78931 | 29614 ft | 387 kts | 271° |
| 2026-04-26 20:05 | 48.05488 | 14.74881 | 29953 ft | 389 kts | 271° |
| 2026-04-26 20:05 | 48.05519 | 14.70862 | 30210 ft | 390 kts | 271° |
| 2026-04-26 20:06 | 48.05578 | 14.62727 | 30225 ft | 392 kts | 271° |
| 2026-04-26 20:06 | 48.05633 | 14.54576 | 30224 ft | 392 kts | 271° |
| 2026-04-26 20:07 | 48.05683 | 14.46468 | 30222 ft | 391 kts | 271° |
| 2026-04-26 20:07 | 48.05728 | 14.38302 | 30228 ft | 392 kts | 271° |
| 2026-04-26 20:08 | 48.05765 | 14.30163 | 30227 ft | 392 kts | 270° |
| 2026-04-26 20:08 | 48.05796 | 14.22057 | 30224 ft | 392 kts | 270° |
| 2026-04-26 20:09 | 48.05824 | 14.13884 | 30227 ft | 392 kts | 270° |
| 2026-04-26 20:09 | 48.05845 | 14.05773 | 30218 ft | 392 kts | 270° |
| 2026-04-26 20:10 | 48.05861 | 13.97594 | 30226 ft | 392 kts | 270° |
| 2026-04-26 20:10 | 48.05871 | 13.89464 | 30223 ft | 392 kts | 270° |
| 2026-04-26 20:11 | 48.05875 | 13.81349 | 30221 ft | 391 kts | 270° |
| 2026-04-26 20:12 | 48.05871 | 13.69120 | 30217 ft | 392 kts | 270° |
| 2026-04-26 20:12 | 48.05861 | 13.60978 | 30216 ft | 391 kts | 270° |
| 2026-04-26 20:13 | 48.05687 | 13.52871 | 30212 ft | 391 kts | 265° |
| 2026-04-26 20:13 | 48.05054 | 13.44827 | 30211 ft | 391 kts | 263° |
| 2026-04-26 20:14 | 48.04369 | 13.36738 | 30211 ft | 391 kts | 263° |
| 2026-04-26 20:14 | 48.03679 | 13.28705 | 30215 ft | 391 kts | 262° |
| 2026-04-26 20:15 | 48.02983 | 13.20627 | 30209 ft | 391 kts | 263° |
| 2026-04-26 20:15 | 48.02292 | 13.12603 | 30208 ft | 391 kts | 263° |
| 2026-04-26 20:16 | 48.01588 | 13.04574 | 30203 ft | 391 kts | 263° |
| 2026-04-26 20:16 | 48.00874 | 12.96518 | 30207 ft | 391 kts | 263° |
| 2026-04-26 20:17 | 48.00156 | 12.88461 | 30206 ft | 391 kts | 263° |
| 2026-04-26 20:17 | 47.99435 | 12.80442 | 30202 ft | 391 kts | 263° |
| 2026-04-26 20:18 | 47.98706 | 12.72382 | 30200 ft | 391 kts | 263° |
| 2026-04-26 20:18 | 47.97971 | 12.64322 | 30200 ft | 391 kts | 263° |
| 2026-04-26 20:19 | 47.97234 | 12.56322 | 30195 ft | 391 kts | 263° |
| 2026-04-26 20:19 | 47.96483 | 12.48223 | 30196 ft | 392 kts | 263° |
| 2026-04-26 20:20 | 47.95734 | 12.40196 | 30203 ft | 392 kts | 263° |
| 2026-04-26 20:20 | 47.94975 | 12.32128 | 30204 ft | 393 kts | 262° |
| 2026-04-26 20:21 | 47.94214 | 12.24085 | 30209 ft | 393 kts | 262° |
| 2026-04-26 20:21 | 47.93440 | 12.15975 | 30213 ft | 394 kts | 262° |
| 2026-04-26 20:22 | 47.92662 | 12.07910 | 30222 ft | 395 kts | 262° |
| 2026-04-26 20:22 | 47.91877 | 11.99815 | 30225 ft | 394 kts | 262° |
| 2026-04-26 20:23 | 47.91089 | 11.91746 | 30228 ft | 394 kts | 262° |
| 2026-04-26 20:23 | 47.90296 | 11.83692 | 30225 ft | 394 kts | 263° |
| 2026-04-26 20:24 | 47.89494 | 11.75592 | 30226 ft | 395 kts | 263° |
| 2026-04-26 20:24 | 47.88683 | 11.67460 | 30223 ft | 395 kts | 263° |
| 2026-04-26 20:25 | 47.87868 | 11.59343 | 30228 ft | 395 kts | 262° |
| 2026-04-26 20:25 | 47.87051 | 11.51267 | 30223 ft | 396 kts | 263° |
| 2026-04-26 20:26 | 47.86224 | 11.43164 | 30228 ft | 395 kts | 262° |
| 2026-04-26 20:26 | 47.85394 | 11.35093 | 30226 ft | 396 kts | 263° |
| 2026-04-26 20:27 | 47.84560 | 11.27031 | 30225 ft | 396 kts | 262° |
| 2026-04-26 20:27 | 47.83713 | 11.18882 | 30225 ft | 396 kts | 262° |
| 2026-04-26 20:28 | 47.82865 | 11.10801 | 30229 ft | 396 kts | 262° |
| 2026-04-26 20:28 | 47.82011 | 11.02763 | 30227 ft | 396 kts | 262° |
| 2026-04-26 20:29 | 47.81135 | 10.94608 | 30229 ft | 396 kts | 262° |
| 2026-04-26 20:29 | 47.80259 | 10.86493 | 30231 ft | 396 kts | 262° |
| 2026-04-26 20:30 | 47.79383 | 10.78434 | 30232 ft | 397 kts | 262° |
| 2026-04-26 20:30 | 47.78503 | 10.70385 | 29941 ft | 395 kts | 262° |
| 2026-04-26 20:30 | 47.78056 | 10.66315 | 28963 ft | 404 kts | 262° |
| 2026-04-26 20:31 | 47.77605 | 10.62211 | 27956 ft | 410 kts | 262° |
| 2026-04-26 20:31 | 47.77140 | 10.58000 | 27083 ft | 412 kts | 263° |
| 2026-04-26 20:31 | 47.76677 | 10.53826 | 26309 ft | 412 kts | 263° |
| 2026-04-26 20:31 | 47.76208 | 10.49617 | 25708 ft | 407 kts | 263° |
| 2026-04-26 20:32 | 47.75750 | 10.45530 | 25120 ft | 403 kts | 263° |
| 2026-04-26 20:32 | 47.75289 | 10.41419 | 24438 ft | 401 kts | 263° |
| 2026-04-26 20:32 | 47.74854 | 10.37385 | 23876 ft | 396 kts | 264° |
| 2026-04-26 20:32 | 47.74564 | 10.33332 | 23374 ft | 390 kts | 267° |
| 2026-04-26 20:33 | 47.74430 | 10.29295 | 22882 ft | 384 kts | 269° |
| 2026-04-26 20:33 | 47.74343 | 10.25364 | 22408 ft | 379 kts | 270° |
| 2026-04-26 20:33 | 47.74258 | 10.21464 | 21945 ft | 375 kts | 270° |
| 2026-04-26 20:33 | 47.74173 | 10.17583 | 21479 ft | 371 kts | 270° |
| 2026-04-26 20:34 | 47.74089 | 10.13825 | 21040 ft | 367 kts | 270° |
| 2026-04-26 20:34 | 47.74001 | 10.10031 | 20563 ft | 364 kts | 270° |
| 2026-04-26 20:34 | 47.73914 | 10.06319 | 20120 ft | 361 kts | 270° |
| 2026-04-26 20:34 | 47.73823 | 10.02573 | 19663 ft | 358 kts | 270° |
| 2026-04-26 20:35 | 47.73734 | 9.98936 | 19220 ft | 356 kts | 270° |
| 2026-04-26 20:35 | 47.73644 | 9.95253 | 18750 ft | 353 kts | 269° |
| 2026-04-26 20:35 | 47.73554 | 9.91641 | 18308 ft | 351 kts | 269° |
| 2026-04-26 20:35 | 47.73463 | 9.88021 | 17850 ft | 348 kts | 269° |
| 2026-04-26 20:36 | 47.73371 | 9.84443 | 17404 ft | 346 kts | 269° |
| 2026-04-26 20:36 | 47.73280 | 9.80896 | 16971 ft | 343 kts | 269° |
| 2026-04-26 20:36 | 47.73187 | 9.77375 | 16546 ft | 341 kts | 269° |
| 2026-04-26 20:36 | 47.73093 | 9.73889 | 16095 ft | 339 kts | 269° |
| 2026-04-26 20:37 | 47.72999 | 9.70389 | 15681 ft | 338 kts | 269° |
| 2026-04-26 20:37 | 47.72905 | 9.66921 | 15219 ft | 337 kts | 269° |
| 2026-04-26 20:37 | 47.72810 | 9.63454 | 14779 ft | 335 kts | 269° |
| 2026-04-26 20:37 | 47.72713 | 9.60001 | 14344 ft | 333 kts | 269° |
| 2026-04-26 20:38 | 47.72617 | 9.56575 | 13910 ft | 331 kts | 269° |
| 2026-04-26 20:38 | 47.72521 | 9.53198 | 13487 ft | 329 kts | 269° |
| 2026-04-26 20:38 | 47.72422 | 9.49800 | 13067 ft | 327 kts | 269° |
| 2026-04-26 20:38 | 47.72321 | 9.46439 | 12656 ft | 325 kts | 268° |
| 2026-04-26 20:39 | 47.71852 | 9.43161 | 12117 ft | 328 kts | 248° |
| 2026-04-26 20:39 | 47.70795 | 9.40176 | 11648 ft | 328 kts | 242° |
| 2026-04-26 20:39 | 47.69638 | 9.37254 | 11187 ft | 327 kts | 241° |
| 2026-04-26 20:39 | 47.68572 | 9.34519 | 10768 ft | 325 kts | 241° |
| 2026-04-26 20:40 | 47.67486 | 9.31637 | 10502 ft | 315 kts | 242° |
| 2026-04-26 20:40 | 47.66444 | 9.28812 | 10393 ft | 302 kts | 243° |
| 2026-04-26 20:40 | 47.65472 | 9.26139 | 10273 ft | 291 kts | 243° |
| 2026-04-26 20:40 | 47.64523 | 9.23508 | 9985 ft | 286 kts | 243° |
| 2026-04-26 20:41 | 47.63591 | 9.20910 | 9624 ft | 285 kts | 243° |
| 2026-04-26 20:41 | 47.62658 | 9.18309 | 9262 ft | 283 kts | 243° |
| 2026-04-26 20:41 | 47.61750 | 9.15776 | 8920 ft | 282 kts | 243° |
| 2026-04-26 20:41 | 47.60831 | 9.13219 | 8568 ft | 280 kts | 243° |
| 2026-04-26 20:42 | 47.59913 | 9.10667 | 8230 ft | 279 kts | 243° |
| 2026-04-26 20:42 | 47.59005 | 9.08144 | 7878 ft | 277 kts | 243° |
| 2026-04-26 20:42 | 47.58099 | 9.05635 | 7548 ft | 275 kts | 240° |
| 2026-04-26 20:42 | 47.56985 | 9.03352 | 7215 ft | 274 kts | 227° |
| 2026-04-26 20:43 | 47.55580 | 9.01424 | 6901 ft | 272 kts | 220° |
| 2026-04-26 20:43 | 47.54116 | 8.99643 | 6573 ft | 272 kts | 219° |
| 2026-04-26 20:43 | 47.52646 | 8.97877 | 6251 ft | 271 kts | 219° |
| 2026-04-26 20:43 | 47.51193 | 8.96118 | 5936 ft | 270 kts | 219° |
| 2026-04-26 20:44 | 47.49737 | 8.94340 | 5585 ft | 270 kts | 219° |
| 2026-04-26 20:44 | 47.48293 | 8.92570 | 5266 ft | 269 kts | 219° |
| 2026-04-26 20:44 | 47.46865 | 8.90818 | 5029 ft | 264 kts | 219° |
| 2026-04-26 20:44 | 47.45489 | 8.89131 | 5008 ft | 249 kts | 219° |
| 2026-04-26 20:45 | 47.44197 | 8.87513 | 5003 ft | 236 kts | 225° |
| 2026-04-26 20:45 | 47.43427 | 8.85521 | 4954 ft | 222 kts | 264° |
| 2026-04-26 20:45 | 47.43515 | 8.83301 | 5003 ft | 214 kts | 281° |
| 2026-04-26 20:45 | 47.43794 | 8.81154 | 4895 ft | 214 kts | 282° |
| 2026-04-26 20:46 | 47.44071 | 8.79002 | 4663 ft | 211 kts | 281° |
| 2026-04-26 20:46 | 47.44276 | 8.76882 | 4376 ft | 206 kts | 278° |
| 2026-04-26 20:46 | 47.44429 | 8.74800 | 4038 ft | 200 kts | 277° |
| 2026-04-26 20:46 | 47.44562 | 8.72797 | 3721 ft | 194 kts | 277° |
| 2026-04-26 20:47 | 47.44692 | 8.70852 | 3425 ft | 187 kts | 277° |
| 2026-04-26 20:47 | 47.44780 | 8.69576 | 3254 ft | 182 kts | 277° |
| 2026-04-26 20:47 | 47.44942 | 8.67239 | 2922 ft | 164 kts | 277° |
| 2026-04-26 20:47 | 47.45056 | 8.65621 | 2677 ft | 151 kts | 277° |
| 2026-04-26 20:48 | 47.45161 | 8.64132 | 2466 ft | 145 kts | 277° |
| 2026-04-26 20:48 | 47.45265 | 8.62651 | 2271 ft | 144 kts | 276° |
| 2026-04-26 20:48 | 47.45366 | 8.61186 | 2069 ft | 143 kts | 277° |
| 2026-04-26 20:48 | 47.45474 | 8.59743 | 1848 ft | 141 kts | 277° |
| 2026-04-26 20:49 | 47.45572 | 8.58302 | 1635 ft | 139 kts | 277° |
| 2026-04-26 20:49 | 47.45671 | 8.56879 | 1461 ft | 139 kts | 276° |
| 2026-04-26 20:49 | 47.45765 | 8.55554 | 1424 ft | 113 kts | 276° |
| 2026-04-26 20:49 | 47.45823 | 8.54688 | 1424 ft | 55 kts | 274° |
| 2026-04-26 20:50 | 47.45743 | 8.54253 | 1424 ft | 29 kts | 229° |
| 2026-04-26 20:50 | 47.45638 | 8.54234 | 1424 ft | 13 kts | 144° |
| 2026-04-26 20:50 | 47.45600 | 8.54337 | 1424 ft | 8 kts | 107° |
| 2026-04-26 20:50 | 47.45585 | 8.54407 | 1424 ft | 6 kts | 108° |
| 2026-04-26 20:51 | 47.45570 | 8.54474 | 1424 ft | 7 kts | 110° |
| 2026-04-26 20:51 | 47.45551 | 8.54557 | 1424 ft | 9 kts | 107° |
| 2026-04-26 20:51 | 47.45529 | 8.54663 | 1424 ft | 11 kts | 108° |
| 2026-04-26 20:51 | 47.45500 | 8.54790 | 1424 ft | 14 kts | 109° |
| 2026-04-26 20:52 | 47.45466 | 8.54935 | 1424 ft | 15 kts | 109° |
| 2026-04-26 20:52 | 47.45427 | 8.55096 | 1424 ft | 17 kts | 109° |
| 2026-04-26 20:52 | 47.45385 | 8.55270 | 1424 ft | 18 kts | 117° |
| 2026-04-26 20:52 | 47.45314 | 8.55426 | 1424 ft | 18 kts | 148° |
| 2026-04-26 20:53 | 47.45198 | 8.55507 | 1424 ft | 18 kts | 155° |
| 2026-04-26 20:53 | 47.45084 | 8.55588 | 1424 ft | 18 kts | 154° |
| 2026-04-26 20:53 | 47.44975 | 8.55663 | 1424 ft | 10 kts | 142° |
| 2026-04-26 20:53 | 47.44956 | 8.55774 | 1424 ft | 11 kts | 92° |
| 2026-04-26 20:54 | 47.44949 | 8.55882 | 1424 ft | 10 kts | 97° |
| 2026-04-26 20:54 | 47.44908 | 8.55956 | 1424 ft | 10 kts | 153° |
| 2026-04-26 20:54 | 47.44834 | 8.56007 | 1424 ft | 13 kts | 154° |
| 2026-04-26 20:54 | 47.44743 | 8.56069 | 1424 ft | 15 kts | 156° |
| 2026-04-26 20:55 | 47.44637 | 8.56143 | 1424 ft | 17 kts | 155° |
| 2026-04-26 20:55 | 47.44590 | 8.56166 | 1424 ft | 4 kts | 216° |
| 2026-04-26 20:55 | 47.44572 | 8.56123 | 1424 ft | 5 kts | 251° |
| 2026-04-26 20:55 | 47.44558 | 8.56077 | 1424 ft | 2 kts | 244° |
| 2026-04-26 20:56 | 47.44555 | 8.56070 | 1424 ft | 0 kts | 245° |